sensor_id;sensor_type;location;lat;lon;timestamp;P1;durP1;ratioP1;P2;durP2;ratioP2
3189;SDS011;1606;51.946;10.558;2023-08-24T00:00:26;8.73;;;3.47;;
3189;SDS011;1606;51.946;10.558;2023-08-24T00:02:53;10.90;;;3.10;;
3189;SDS011;1606;51.946;10.558;2023-08-24T00:05:22;13.70;;;3.17;;
3189;SDS011;1606;51.946;10.558;2023-08-24T00:07:51;7.90;;;2.70;;
3189;SDS011;1606;51.946;10.558;2023-08-24T00:10:19;9.83;;;2.90;;
3189;SDS011;1606;51.946;10.558;2023-08-24T00:12:47;8.40;;;3.20;;
3189;SDS011;1606;51.946;10.558;2023-08-24T00:15:15;9.17;;;3.60;;
3189;SDS011;1606;51.946;10.558;2023-08-24T00:17:42;8.83;;;3.40;;
3189;SDS011;1606;51.946;10.558;2023-08-24T00:20:10;6.90;;;2.87;;
3189;SDS011;1606;51.946;10.558;2023-08-24T00:22:39;7.47;;;3.00;;
3189;SDS011;1606;51.946;10.558;2023-08-24T00:25:09;8.53;;;3.13;;
3189;SDS011;1606;51.946;10.558;2023-08-24T00:27:37;13.73;;;3.53;;
3189;SDS011;1606;51.946;10.558;2023-08-24T00:30:07;9.07;;;3.50;;
3189;SDS011;1606;51.946;10.558;2023-08-24T00:32:35;7.07;;;3.40;;
3189;SDS011;1606;51.946;10.558;2023-08-24T00:35:04;8.40;;;2.93;;
3189;SDS011;1606;51.946;10.558;2023-08-24T00:37:33;9.00;;;3.03;;
3189;SDS011;1606;51.946;10.558;2023-08-24T00:40:02;10.43;;;3.40;;
3189;SDS011;1606;51.946;10.558;2023-08-24T00:42:38;8.63;;;3.13;;
3189;SDS011;1606;51.946;10.558;2023-08-24T00:45:06;9.73;;;3.47;;
3189;SDS011;1606;51.946;10.558;2023-08-24T00:47:36;11.57;;;3.20;;
3189;SDS011;1606;51.946;10.558;2023-08-24T00:50:05;9.43;;;3.47;;
3189;SDS011;1606;51.946;10.558;2023-08-24T00:52:34;13.40;;;3.73;;
3189;SDS011;1606;51.946;10.558;2023-08-24T00:55:05;10.80;;;3.57;;
3189;SDS011;1606;51.946;10.558;2023-08-24T00:57:34;10.90;;;3.73;;
3189;SDS011;1606;51.946;10.558;2023-08-24T01:00:06;13.73;;;3.90;;
3189;SDS011;1606;51.946;10.558;2023-08-24T01:02:36;8.67;;;3.87;;
3189;SDS011;1606;51.946;10.558;2023-08-24T01:05:04;9.03;;;3.70;;
3189;SDS011;1606;51.946;10.558;2023-08-24T01:07:32;10.67;;;3.87;;
3189;SDS011;1606;51.946;10.558;2023-08-24T01:10:02;12.03;;;4.03;;
3189;SDS011;1606;51.946;10.558;2023-08-24T01:12:33;9.80;;;4.00;;
3189;SDS011;1606;51.946;10.558;2023-08-24T01:15:12;8.87;;;3.27;;
3189;SDS011;1606;51.946;10.558;2023-08-24T01:17:44;14.00;;;5.00;;
3189;SDS011;1606;51.946;10.558;2023-08-24T01:20:15;10.00;;;3.87;;
3189;SDS011;1606;51.946;10.558;2023-08-24T01:22:47;10.33;;;3.57;;
3189;SDS011;1606;51.946;10.558;2023-08-24T01:25:23;8.10;;;4.03;;
3189;SDS011;1606;51.946;10.558;2023-08-24T01:28:01;11.27;;;5.43;;
3189;SDS011;1606;51.946;10.558;2023-08-24T01:30:30;10.43;;;4.20;;
3189;SDS011;1606;51.946;10.558;2023-08-24T01:33:00;7.57;;;3.60;;
3189;SDS011;1606;51.946;10.558;2023-08-24T01:35:30;7.73;;;3.47;;
3189;SDS011;1606;51.946;10.558;2023-08-24T01:37:59;8.80;;;4.00;;
3189;SDS011;1606;51.946;10.558;2023-08-24T01:40:31;8.47;;;3.90;;
3189;SDS011;1606;51.946;10.558;2023-08-24T01:43:12;12.20;;;4.63;;
3189;SDS011;1606;51.946;10.558;2023-08-24T01:45:47;10.50;;;4.53;;
3189;SDS011;1606;51.946;10.558;2023-08-24T01:48:17;8.10;;;4.10;;
3189;SDS011;1606;51.946;10.558;2023-08-24T01:50:45;9.33;;;4.13;;
3189;SDS011;1606;51.946;10.558;2023-08-24T01:53:14;14.17;;;5.60;;
3189;SDS011;1606;51.946;10.558;2023-08-24T01:55:42;9.27;;;4.20;;
3189;SDS011;1606;51.946;10.558;2023-08-24T01:58:13;11.77;;;4.70;;
3189;SDS011;1606;51.946;10.558;2023-08-24T02:00:41;7.70;;;4.10;;
3189;SDS011;1606;51.946;10.558;2023-08-24T02:03:10;11.20;;;4.13;;
3189;SDS011;1606;51.946;10.558;2023-08-24T02:05:38;11.20;;;5.20;;
3189;SDS011;1606;51.946;10.558;2023-08-24T02:08:05;9.80;;;4.87;;
3189;SDS011;1606;51.946;10.558;2023-08-24T02:10:33;11.93;;;5.67;;
3189;SDS011;1606;51.946;10.558;2023-08-24T02:13:01;10.17;;;4.93;;
3189;SDS011;1606;51.946;10.558;2023-08-24T02:15:31;9.50;;;6.00;;
3189;SDS011;1606;51.946;10.558;2023-08-24T02:17:59;10.40;;;4.60;;
3189;SDS011;1606;51.946;10.558;2023-08-24T02:20:27;9.03;;;5.00;;
3189;SDS011;1606;51.946;10.558;2023-08-24T02:22:54;14.67;;;5.37;;
3189;SDS011;1606;51.946;10.558;2023-08-24T02:25:22;9.87;;;5.47;;
3189;SDS011;1606;51.946;10.558;2023-08-24T02:27:50;11.27;;;5.43;;
3189;SDS011;1606;51.946;10.558;2023-08-24T02:30:18;8.87;;;5.03;;
3189;SDS011;1606;51.946;10.558;2023-08-24T02:32:47;10.70;;;5.00;;
3189;SDS011;1606;51.946;10.558;2023-08-24T02:35:17;10.00;;;5.50;;
3189;SDS011;1606;51.946;10.558;2023-08-24T02:37:45;9.93;;;5.77;;
3189;SDS011;1606;51.946;10.558;2023-08-24T02:40:14;11.73;;;5.93;;
3189;SDS011;1606;51.946;10.558;2023-08-24T02:42:41;11.10;;;5.30;;
3189;SDS011;1606;51.946;10.558;2023-08-24T02:45:09;9.50;;;5.87;;
3189;SDS011;1606;51.946;10.558;2023-08-24T02:47:37;13.03;;;5.10;;
3189;SDS011;1606;51.946;10.558;2023-08-24T02:50:07;14.30;;;5.07;;
3189;SDS011;1606;51.946;10.558;2023-08-24T02:52:36;10.87;;;5.73;;
3189;SDS011;1606;51.946;10.558;2023-08-24T02:55:04;11.03;;;5.60;;
3189;SDS011;1606;51.946;10.558;2023-08-24T02:57:34;9.43;;;6.00;;
3189;SDS011;1606;51.946;10.558;2023-08-24T03:00:02;9.40;;;5.97;;
3189;SDS011;1606;51.946;10.558;2023-08-24T03:02:33;9.27;;;6.23;;
3189;SDS011;1606;51.946;10.558;2023-08-24T03:05:01;9.20;;;6.10;;
3189;SDS011;1606;51.946;10.558;2023-08-24T03:07:30;12.10;;;6.43;;
3189;SDS011;1606;51.946;10.558;2023-08-24T03:09:58;10.50;;;6.10;;
3189;SDS011;1606;51.946;10.558;2023-08-24T03:12:26;9.97;;;5.80;;
3189;SDS011;1606;51.946;10.558;2023-08-24T03:14:54;11.70;;;6.53;;
3189;SDS011;1606;51.946;10.558;2023-08-24T03:17:22;10.47;;;5.80;;
3189;SDS011;1606;51.946;10.558;2023-08-24T03:19:50;9.87;;;5.90;;
3189;SDS011;1606;51.946;10.558;2023-08-24T03:22:18;9.03;;;6.30;;
3189;SDS011;1606;51.946;10.558;2023-08-24T03:24:47;10.87;;;6.03;;
3189;SDS011;1606;51.946;10.558;2023-08-24T03:27:15;13.77;;;6.57;;
3189;SDS011;1606;51.946;10.558;2023-08-24T03:29:43;9.70;;;5.83;;
3189;SDS011;1606;51.946;10.558;2023-08-24T03:32:11;11.40;;;6.03;;
3189;SDS011;1606;51.946;10.558;2023-08-24T03:34:39;10.07;;;6.00;;
3189;SDS011;1606;51.946;10.558;2023-08-24T03:37:07;10.07;;;5.93;;
3189;SDS011;1606;51.946;10.558;2023-08-24T03:39:36;11.30;;;5.97;;
3189;SDS011;1606;51.946;10.558;2023-08-24T03:42:06;9.70;;;6.30;;
3189;SDS011;1606;51.946;10.558;2023-08-24T03:44:34;11.67;;;6.87;;
3189;SDS011;1606;51.946;10.558;2023-08-24T03:47:02;14.87;;;6.67;;
3189;SDS011;1606;51.946;10.558;2023-08-24T03:49:30;14.70;;;8.10;;
3189;SDS011;1606;51.946;10.558;2023-08-24T03:51:58;12.83;;;6.97;;
3189;SDS011;1606;51.946;10.558;2023-08-24T03:54:26;11.27;;;6.93;;
3189;SDS011;1606;51.946;10.558;2023-08-24T03:56:54;9.83;;;6.60;;
3189;SDS011;1606;51.946;10.558;2023-08-24T03:59:23;10.60;;;6.73;;
3189;SDS011;1606;51.946;10.558;2023-08-24T04:01:51;13.77;;;6.53;;
3189;SDS011;1606;51.946;10.558;2023-08-24T04:04:19;15.30;;;8.20;;
3189;SDS011;1606;51.946;10.558;2023-08-24T04:06:47;11.50;;;7.20;;
3189;SDS011;1606;51.946;10.558;2023-08-24T04:09:16;10.17;;;6.27;;
3189;SDS011;1606;51.946;10.558;2023-08-24T04:11:43;12.43;;;8.10;;
3189;SDS011;1606;51.946;10.558;2023-08-24T04:14:11;14.67;;;7.00;;
3189;SDS011;1606;51.946;10.558;2023-08-24T04:16:41;11.90;;;7.10;;
3189;SDS011;1606;51.946;10.558;2023-08-24T04:19:09;10.00;;;7.10;;
3189;SDS011;1606;51.946;10.558;2023-08-24T04:21:37;10.80;;;7.37;;
3189;SDS011;1606;51.946;10.558;2023-08-24T04:24:05;11.03;;;7.40;;
3189;SDS011;1606;51.946;10.558;2023-08-24T04:26:33;12.52;;;6.47;;
3189;SDS011;1606;51.946;10.558;2023-08-24T04:29:01;13.60;;;7.20;;
3189;SDS011;1606;51.946;10.558;2023-08-24T04:31:29;9.50;;;5.80;;
3189;SDS011;1606;51.946;10.558;2023-08-24T04:33:58;14.53;;;7.80;;
3189;SDS011;1606;51.946;10.558;2023-08-24T04:36:26;9.00;;;6.70;;
3189;SDS011;1606;51.946;10.558;2023-08-24T04:38:54;10.10;;;7.50;;
3189;SDS011;1606;51.946;10.558;2023-08-24T04:41:21;12.33;;;7.40;;
3189;SDS011;1606;51.946;10.558;2023-08-24T04:43:49;11.63;;;6.60;;
3189;SDS011;1606;51.946;10.558;2023-08-24T04:46:17;9.10;;;6.20;;
3189;SDS011;1606;51.946;10.558;2023-08-24T04:48:45;12.03;;;7.20;;
3189;SDS011;1606;51.946;10.558;2023-08-24T04:51:14;11.40;;;6.73;;
3189;SDS011;1606;51.946;10.558;2023-08-24T04:53:43;16.43;;;7.63;;
3189;SDS011;1606;51.946;10.558;2023-08-24T04:56:11;14.03;;;7.53;;
3189;SDS011;1606;51.946;10.558;2023-08-24T04:58:38;11.50;;;7.47;;
3189;SDS011;1606;51.946;10.558;2023-08-24T05:01:06;11.80;;;6.43;;
3189;SDS011;1606;51.946;10.558;2023-08-24T05:03:34;11.07;;;7.40;;
3189;SDS011;1606;51.946;10.558;2023-08-24T05:06:02;9.63;;;6.73;;
3189;SDS011;1606;51.946;10.558;2023-08-24T05:08:32;10.60;;;7.70;;
3189;SDS011;1606;51.946;10.558;2023-08-24T05:11:00;10.60;;;7.60;;
3189;SDS011;1606;51.946;10.558;2023-08-24T05:13:29;11.03;;;8.33;;
3189;SDS011;1606;51.946;10.558;2023-08-24T05:15:57;12.40;;;7.70;;
3189;SDS011;1606;51.946;10.558;2023-08-24T05:18:25;12.43;;;7.40;;
3189;SDS011;1606;51.946;10.558;2023-08-24T05:20:53;15.13;;;7.07;;
3189;SDS011;1606;51.946;10.558;2023-08-24T05:23:20;11.33;;;7.87;;
3189;SDS011;1606;51.946;10.558;2023-08-24T05:25:50;11.27;;;6.90;;
3189;SDS011;1606;51.946;10.558;2023-08-24T05:28:18;16.37;;;7.63;;
3189;SDS011;1606;51.946;10.558;2023-08-24T05:30:45;10.77;;;7.03;;
3189;SDS011;1606;51.946;10.558;2023-08-24T05:33:13;11.27;;;7.23;;
3189;SDS011;1606;51.946;10.558;2023-08-24T05:35:41;10.90;;;7.00;;
3189;SDS011;1606;51.946;10.558;2023-08-24T05:38:09;11.30;;;7.30;;
3189;SDS011;1606;51.946;10.558;2023-08-24T05:40:37;15.70;;;7.77;;
3189;SDS011;1606;51.946;10.558;2023-08-24T05:43:07;10.20;;;7.90;;
3189;SDS011;1606;51.946;10.558;2023-08-24T05:45:35;11.90;;;7.07;;
3189;SDS011;1606;51.946;10.558;2023-08-24T05:48:05;12.17;;;6.90;;
3189;SDS011;1606;51.946;10.558;2023-08-24T05:50:34;14.83;;;8.60;;
3189;SDS011;1606;51.946;10.558;2023-08-24T05:53:03;11.63;;;8.13;;
3189;SDS011;1606;51.946;10.558;2023-08-24T05:55:31;12.23;;;7.93;;
3189;SDS011;1606;51.946;10.558;2023-08-24T05:57:59;10.73;;;8.33;;
3189;SDS011;1606;51.946;10.558;2023-08-24T06:00:28;14.75;;;9.02;;
3189;SDS011;1606;51.946;10.558;2023-08-24T06:02:56;11.67;;;8.30;;
3189;SDS011;1606;51.946;10.558;2023-08-24T06:05:24;10.97;;;8.07;;
3189;SDS011;1606;51.946;10.558;2023-08-24T06:07:52;13.30;;;8.33;;
3189;SDS011;1606;51.946;10.558;2023-08-24T06:10:20;14.90;;;8.23;;
3189;SDS011;1606;51.946;10.558;2023-08-24T06:12:48;16.07;;;8.33;;
3189;SDS011;1606;51.946;10.558;2023-08-24T06:15:16;11.10;;;7.13;;
3189;SDS011;1606;51.946;10.558;2023-08-24T06:17:46;13.70;;;7.83;;
3189;SDS011;1606;51.946;10.558;2023-08-24T06:20:16;14.50;;;7.30;;
3189;SDS011;1606;51.946;10.558;2023-08-24T06:22:44;13.10;;;7.67;;
3189;SDS011;1606;51.946;10.558;2023-08-24T06:25:12;11.90;;;7.10;;
3189;SDS011;1606;51.946;10.558;2023-08-24T06:27:40;11.30;;;7.37;;
3189;SDS011;1606;51.946;10.558;2023-08-24T06:30:09;13.87;;;7.53;;
3189;SDS011;1606;51.946;10.558;2023-08-24T06:32:37;11.57;;;7.27;;
3189;SDS011;1606;51.946;10.558;2023-08-24T06:35:07;12.93;;;7.07;;
3189;SDS011;1606;51.946;10.558;2023-08-24T06:37:35;12.57;;;7.53;;
3189;SDS011;1606;51.946;10.558;2023-08-24T06:40:03;9.53;;;6.60;;
3189;SDS011;1606;51.946;10.558;2023-08-24T06:42:32;17.37;;;7.63;;
3189;SDS011;1606;51.946;10.558;2023-08-24T06:45:00;15.13;;;8.23;;
3189;SDS011;1606;51.946;10.558;2023-08-24T06:47:28;10.30;;;6.63;;
3189;SDS011;1606;51.946;10.558;2023-08-24T06:49:56;12.60;;;7.13;;
3189;SDS011;1606;51.946;10.558;2023-08-24T06:52:25;18.03;;;7.27;;
3189;SDS011;1606;51.946;10.558;2023-08-24T06:54:53;12.17;;;7.03;;
3189;SDS011;1606;51.946;10.558;2023-08-24T06:57:22;11.90;;;7.57;;
3189;SDS011;1606;51.946;10.558;2023-08-24T06:59:50;13.93;;;6.83;;
3189;SDS011;1606;51.946;10.558;2023-08-24T07:02:18;18.07;;;7.53;;
3189;SDS011;1606;51.946;10.558;2023-08-24T07:04:46;11.95;;;6.43;;
3189;SDS011;1606;51.946;10.558;2023-08-24T07:07:14;15.23;;;7.10;;
3189;SDS011;1606;51.946;10.558;2023-08-24T07:09:43;15.93;;;8.17;;
3189;SDS011;1606;51.946;10.558;2023-08-24T07:12:11;10.83;;;6.80;;
3189;SDS011;1606;51.946;10.558;2023-08-24T07:14:39;10.33;;;6.03;;
3189;SDS011;1606;51.946;10.558;2023-08-24T07:17:07;10.53;;;6.53;;
3189;SDS011;1606;51.946;10.558;2023-08-24T07:19:36;18.03;;;6.80;;
3189;SDS011;1606;51.946;10.558;2023-08-24T07:22:04;12.63;;;8.13;;
3189;SDS011;1606;51.946;10.558;2023-08-24T07:24:31;10.40;;;5.70;;
3189;SDS011;1606;51.946;10.558;2023-08-24T07:27:12;10.50;;;6.60;;
3189;SDS011;1606;51.946;10.558;2023-08-24T07:29:40;12.37;;;7.50;;
3189;SDS011;1606;51.946;10.558;2023-08-24T07:32:08;13.47;;;7.10;;
3189;SDS011;1606;51.946;10.558;2023-08-24T07:34:36;12.37;;;7.13;;
3189;SDS011;1606;51.946;10.558;2023-08-24T07:37:04;12.02;;;6.72;;
3189;SDS011;1606;51.946;10.558;2023-08-24T07:39:32;10.23;;;7.80;;
3189;SDS011;1606;51.946;10.558;2023-08-24T07:42:00;10.07;;;7.20;;
3189;SDS011;1606;51.946;10.558;2023-08-24T07:44:29;9.60;;;6.77;;
3189;SDS011;1606;51.946;10.558;2023-08-24T07:46:57;17.03;;;8.90;;
3189;SDS011;1606;51.946;10.558;2023-08-24T07:49:25;13.00;;;8.60;;
3189;SDS011;1606;51.946;10.558;2023-08-24T07:51:53;13.60;;;9.67;;
3189;SDS011;1606;51.946;10.558;2023-08-24T07:54:21;11.40;;;8.30;;
3189;SDS011;1606;51.946;10.558;2023-08-24T07:56:49;16.60;;;8.30;;
3189;SDS011;1606;51.946;10.558;2023-08-24T07:59:17;14.57;;;9.67;;
3189;SDS011;1606;51.946;10.558;2023-08-24T08:01:46;15.47;;;8.93;;
3189;SDS011;1606;51.946;10.558;2023-08-24T08:04:14;15.70;;;8.70;;
3189;SDS011;1606;51.946;10.558;2023-08-24T08:06:42;13.30;;;7.83;;
3189;SDS011;1606;51.946;10.558;2023-08-24T08:09:10;14.40;;;7.53;;
3189;SDS011;1606;51.946;10.558;2023-08-24T08:11:39;13.90;;;8.40;;
3189;SDS011;1606;51.946;10.558;2023-08-24T08:14:06;10.70;;;6.43;;
3189;SDS011;1606;51.946;10.558;2023-08-24T08:16:34;11.83;;;7.40;;
3189;SDS011;1606;51.946;10.558;2023-08-24T08:19:04;11.30;;;7.77;;
3189;SDS011;1606;51.946;10.558;2023-08-24T08:21:33;11.70;;;7.90;;
3189;SDS011;1606;51.946;10.558;2023-08-24T08:24:01;13.10;;;7.17;;
3189;SDS011;1606;51.946;10.558;2023-08-24T08:26:28;14.97;;;7.13;;
3189;SDS011;1606;51.946;10.558;2023-08-24T08:28:56;11.10;;;6.43;;
3189;SDS011;1606;51.946;10.558;2023-08-24T08:31:24;17.50;;;7.93;;
3189;SDS011;1606;51.946;10.558;2023-08-24T08:33:53;12.13;;;5.90;;
3189;SDS011;1606;51.946;10.558;2023-08-24T08:36:24;10.63;;;5.73;;
3189;SDS011;1606;51.946;10.558;2023-08-24T08:38:52;11.20;;;6.10;;
3189;SDS011;1606;51.946;10.558;2023-08-24T08:41:21;11.83;;;6.90;;
3189;SDS011;1606;51.946;10.558;2023-08-24T08:43:53;12.03;;;6.30;;
3189;SDS011;1606;51.946;10.558;2023-08-24T08:46:21;10.33;;;6.37;;
3189;SDS011;1606;51.946;10.558;2023-08-24T08:48:50;10.27;;;6.33;;
3189;SDS011;1606;51.946;10.558;2023-08-24T08:51:19;10.30;;;7.20;;
3189;SDS011;1606;51.946;10.558;2023-08-24T08:53:48;12.00;;;7.20;;
3189;SDS011;1606;51.946;10.558;2023-08-24T08:56:16;13.90;;;7.83;;
3189;SDS011;1606;51.946;10.558;2023-08-24T08:58:45;13.33;;;7.10;;
3189;SDS011;1606;51.946;10.558;2023-08-24T09:01:13;11.57;;;8.00;;
3189;SDS011;1606;51.946;10.558;2023-08-24T09:03:42;11.03;;;7.20;;
3189;SDS011;1606;51.946;10.558;2023-08-24T09:06:11;11.13;;;7.00;;
3189;SDS011;1606;51.946;10.558;2023-08-24T09:08:39;11.43;;;6.30;;
3189;SDS011;1606;51.946;10.558;2023-08-24T09:11:08;10.50;;;7.13;;
3189;SDS011;1606;51.946;10.558;2023-08-24T09:13:36;11.98;;;6.45;;
3189;SDS011;1606;51.946;10.558;2023-08-24T09:16:05;13.37;;;6.60;;
3189;SDS011;1606;51.946;10.558;2023-08-24T09:18:35;10.93;;;6.30;;
3189;SDS011;1606;51.946;10.558;2023-08-24T09:21:07;11.07;;;5.70;;
3189;SDS011;1606;51.946;10.558;2023-08-24T09:23:37;10.33;;;5.83;;
3189;SDS011;1606;51.946;10.558;2023-08-24T09:26:05;12.03;;;5.73;;
3189;SDS011;1606;51.946;10.558;2023-08-24T09:28:34;11.53;;;6.40;;
3189;SDS011;1606;51.946;10.558;2023-08-24T09:31:05;10.10;;;5.70;;
3189;SDS011;1606;51.946;10.558;2023-08-24T09:33:33;12.97;;;6.07;;
3189;SDS011;1606;51.946;10.558;2023-08-24T09:36:05;9.80;;;5.67;;
3189;SDS011;1606;51.946;10.558;2023-08-24T09:38:34;13.30;;;6.60;;
3189;SDS011;1606;51.946;10.558;2023-08-24T09:41:02;10.17;;;5.50;;
3189;SDS011;1606;51.946;10.558;2023-08-24T09:43:30;13.27;;;7.50;;
3189;SDS011;1606;51.946;10.558;2023-08-24T09:46:00;16.70;;;6.67;;
3189;SDS011;1606;51.946;10.558;2023-08-24T09:48:29;11.53;;;6.30;;
3189;SDS011;1606;51.946;10.558;2023-08-24T09:50:58;9.47;;;5.70;;
3189;SDS011;1606;51.946;10.558;2023-08-24T09:53:32;13.17;;;6.40;;
3189;SDS011;1606;51.946;10.558;2023-08-24T09:56:04;10.77;;;6.10;;
3189;SDS011;1606;51.946;10.558;2023-08-24T09:58:33;13.00;;;6.23;;
3189;SDS011;1606;51.946;10.558;2023-08-24T10:01:03;10.40;;;5.60;;
3189;SDS011;1606;51.946;10.558;2023-08-24T10:03:32;12.33;;;6.30;;
3189;SDS011;1606;51.946;10.558;2023-08-24T10:06:03;9.40;;;5.40;;
3189;SDS011;1606;51.946;10.558;2023-08-24T10:08:35;10.00;;;5.90;;
3189;SDS011;1606;51.946;10.558;2023-08-24T10:11:05;9.40;;;5.47;;
3189;SDS011;1606;51.946;10.558;2023-08-24T10:13:36;9.57;;;6.70;;
3189;SDS011;1606;51.946;10.558;2023-08-24T10:16:09;13.60;;;6.07;;
3189;SDS011;1606;51.946;10.558;2023-08-24T10:18:40;9.10;;;6.03;;
3189;SDS011;1606;51.946;10.558;2023-08-24T10:21:08;10.60;;;5.37;;
3189;SDS011;1606;51.946;10.558;2023-08-24T10:23:37;12.20;;;5.80;;
3189;SDS011;1606;51.946;10.558;2023-08-24T10:26:06;12.33;;;5.90;;
3189;SDS011;1606;51.946;10.558;2023-08-24T10:28:36;9.57;;;5.30;;
3189;SDS011;1606;51.946;10.558;2023-08-24T10:31:04;10.30;;;5.83;;
3189;SDS011;1606;51.946;10.558;2023-08-24T10:33:33;13.77;;;5.83;;
3189;SDS011;1606;51.946;10.558;2023-08-24T10:36:04;17.80;;;6.97;;
3189;SDS011;1606;51.946;10.558;2023-08-24T10:38:34;8.40;;;4.90;;
3189;SDS011;1606;51.946;10.558;2023-08-24T10:41:07;8.37;;;5.30;;
3189;SDS011;1606;51.946;10.558;2023-08-24T10:43:35;11.47;;;5.80;;
3189;SDS011;1606;51.946;10.558;2023-08-24T10:46:04;10.20;;;5.80;;
3189;SDS011;1606;51.946;10.558;2023-08-24T10:48:58;9.90;;;5.23;;
3189;SDS011;1606;51.946;10.558;2023-08-24T10:51:27;13.27;;;6.70;;
3189;SDS011;1606;51.946;10.558;2023-08-24T10:53:57;13.30;;;6.17;;
3189;SDS011;1606;51.946;10.558;2023-08-24T10:56:33;10.03;;;5.47;;
3189;SDS011;1606;51.946;10.558;2023-08-24T10:59:13;13.27;;;5.80;;
3189;SDS011;1606;51.946;10.558;2023-08-24T11:01:43;12.10;;;5.20;;
3189;SDS011;1606;51.946;10.558;2023-08-24T11:04:23;21.20;;;6.40;;
3189;SDS011;1606;51.946;10.558;2023-08-24T11:06:52;13.40;;;5.20;;
3189;SDS011;1606;51.946;10.558;2023-08-24T11:09:22;9.70;;;4.23;;
3189;SDS011;1606;51.946;10.558;2023-08-24T11:11:58;8.53;;;4.67;;
3189;SDS011;1606;51.946;10.558;2023-08-24T11:14:27;12.57;;;4.87;;
3189;SDS011;1606;51.946;10.558;2023-08-24T11:16:57;11.97;;;4.70;;
3189;SDS011;1606;51.946;10.558;2023-08-24T11:19:27;9.63;;;4.70;;
3189;SDS011;1606;51.946;10.558;2023-08-24T11:21:57;13.13;;;4.23;;
3189;SDS011;1606;51.946;10.558;2023-08-24T11:24:25;14.57;;;4.50;;
3189;SDS011;1606;51.946;10.558;2023-08-24T11:26:53;11.10;;;5.37;;
3189;SDS011;1606;51.946;10.558;2023-08-24T11:29:21;8.83;;;4.17;;
3189;SDS011;1606;51.946;10.558;2023-08-24T11:31:50;10.90;;;4.30;;
3189;SDS011;1606;51.946;10.558;2023-08-24T11:34:19;13.07;;;3.93;;
3189;SDS011;1606;51.946;10.558;2023-08-24T11:36:48;8.20;;;4.30;;
3189;SDS011;1606;51.946;10.558;2023-08-24T11:39:17;9.10;;;3.83;;
3189;SDS011;1606;51.946;10.558;2023-08-24T11:41:56;8.93;;;4.00;;
3189;SDS011;1606;51.946;10.558;2023-08-24T11:44:25;8.07;;;3.70;;
3189;SDS011;1606;51.946;10.558;2023-08-24T11:46:55;7.33;;;3.67;;
3189;SDS011;1606;51.946;10.558;2023-08-24T11:49:25;9.80;;;3.83;;
3189;SDS011;1606;51.946;10.558;2023-08-24T11:51:54;8.83;;;3.60;;
3189;SDS011;1606;51.946;10.558;2023-08-24T11:54:22;9.33;;;3.90;;
3189;SDS011;1606;51.946;10.558;2023-08-24T11:56:50;8.90;;;4.07;;
3189;SDS011;1606;51.946;10.558;2023-08-24T11:59:19;11.40;;;4.13;;
3189;SDS011;1606;51.946;10.558;2023-08-24T12:01:47;10.23;;;3.50;;
3189;SDS011;1606;51.946;10.558;2023-08-24T12:04:16;8.47;;;3.20;;
3189;SDS011;1606;51.946;10.558;2023-08-24T12:06:44;11.40;;;3.97;;
3189;SDS011;1606;51.946;10.558;2023-08-24T12:09:13;9.10;;;3.53;;
3189;SDS011;1606;51.946;10.558;2023-08-24T12:11:42;7.47;;;3.80;;
3189;SDS011;1606;51.946;10.558;2023-08-24T12:14:16;8.97;;;3.87;;
3189;SDS011;1606;51.946;10.558;2023-08-24T12:16:44;12.37;;;4.60;;
3189;SDS011;1606;51.946;10.558;2023-08-24T12:19:13;12.27;;;3.67;;
3189;SDS011;1606;51.946;10.558;2023-08-24T12:21:43;8.60;;;4.00;;
3189;SDS011;1606;51.946;10.558;2023-08-24T12:24:13;7.60;;;3.63;;
3189;SDS011;1606;51.946;10.558;2023-08-24T12:26:42;12.97;;;4.10;;
3189;SDS011;1606;51.946;10.558;2023-08-24T12:29:10;9.53;;;4.20;;
3189;SDS011;1606;51.946;10.558;2023-08-24T12:31:41;10.70;;;4.10;;
3189;SDS011;1606;51.946;10.558;2023-08-24T12:34:10;10.50;;;3.93;;
3189;SDS011;1606;51.946;10.558;2023-08-24T12:36:42;7.73;;;3.80;;
3189;SDS011;1606;51.946;10.558;2023-08-24T12:39:10;7.87;;;3.70;;
3189;SDS011;1606;51.946;10.558;2023-08-24T12:41:41;7.80;;;3.30;;
3189;SDS011;1606;51.946;10.558;2023-08-24T12:44:09;8.13;;;3.30;;
3189;SDS011;1606;51.946;10.558;2023-08-24T12:46:40;11.30;;;3.97;;
3189;SDS011;1606;51.946;10.558;2023-08-24T12:49:08;9.77;;;4.00;;
3189;SDS011;1606;51.946;10.558;2023-08-24T12:51:36;9.00;;;3.80;;
3189;SDS011;1606;51.946;10.558;2023-08-24T12:54:05;11.80;;;4.10;;
3189;SDS011;1606;51.946;10.558;2023-08-24T12:56:37;10.23;;;4.20;;
3189;SDS011;1606;51.946;10.558;2023-08-24T12:59:07;7.70;;;3.70;;
3189;SDS011;1606;51.946;10.558;2023-08-24T13:01:35;10.10;;;4.03;;
3189;SDS011;1606;51.946;10.558;2023-08-24T13:04:03;10.70;;;3.30;;
3189;SDS011;1606;51.946;10.558;2023-08-24T13:06:32;8.50;;;3.57;;
3189;SDS011;1606;51.946;10.558;2023-08-24T13:09:00;7.13;;;3.20;;
3189;SDS011;1606;51.946;10.558;2023-08-24T13:11:29;9.50;;;3.50;;
3189;SDS011;1606;51.946;10.558;2023-08-24T13:13:57;10.33;;;3.20;;
3189;SDS011;1606;51.946;10.558;2023-08-24T13:16:26;7.83;;;3.00;;
3189;SDS011;1606;51.946;10.558;2023-08-24T13:18:55;7.77;;;3.20;;
3189;SDS011;1606;51.946;10.558;2023-08-24T13:21:24;11.57;;;3.50;;
3189;SDS011;1606;51.946;10.558;2023-08-24T13:23:52;9.10;;;3.90;;
3189;SDS011;1606;51.946;10.558;2023-08-24T13:26:20;9.30;;;3.40;;
3189;SDS011;1606;51.946;10.558;2023-08-24T13:28:50;8.40;;;3.20;;
3189;SDS011;1606;51.946;10.558;2023-08-24T13:31:18;10.73;;;3.60;;
3189;SDS011;1606;51.946;10.558;2023-08-24T13:33:48;10.57;;;2.90;;
3189;SDS011;1606;51.946;10.558;2023-08-24T13:36:16;12.73;;;3.70;;
3189;SDS011;1606;51.946;10.558;2023-08-24T13:38:44;10.17;;;3.67;;
3189;SDS011;1606;51.946;10.558;2023-08-24T13:41:13;17.03;;;3.67;;
3189;SDS011;1606;51.946;10.558;2023-08-24T13:43:41;10.13;;;3.30;;
3189;SDS011;1606;51.946;10.558;2023-08-24T13:46:09;10.10;;;3.70;;
3189;SDS011;1606;51.946;10.558;2023-08-24T13:48:37;7.80;;;2.97;;
3189;SDS011;1606;51.946;10.558;2023-08-24T13:51:06;9.10;;;3.90;;
3189;SDS011;1606;51.946;10.558;2023-08-24T13:53:35;7.80;;;3.60;;
3189;SDS011;1606;51.946;10.558;2023-08-24T13:56:03;7.83;;;3.00;;
3189;SDS011;1606;51.946;10.558;2023-08-24T13:58:32;9.67;;;4.30;;
3189;SDS011;1606;51.946;10.558;2023-08-24T14:00:59;10.83;;;3.60;;
3189;SDS011;1606;51.946;10.558;2023-08-24T14:03:29;10.53;;;3.70;;
3189;SDS011;1606;51.946;10.558;2023-08-24T14:05:57;9.83;;;3.37;;
3189;SDS011;1606;51.946;10.558;2023-08-24T14:08:27;9.00;;;3.10;;
3189;SDS011;1606;51.946;10.558;2023-08-24T14:10:55;9.77;;;3.47;;
3189;SDS011;1606;51.946;10.558;2023-08-24T14:13:23;9.13;;;3.23;;
3189;SDS011;1606;51.946;10.558;2023-08-24T14:15:51;10.57;;;3.70;;
3189;SDS011;1606;51.946;10.558;2023-08-24T14:18:19;13.93;;;4.00;;
3189;SDS011;1606;51.946;10.558;2023-08-24T14:20:47;9.63;;;3.60;;
3189;SDS011;1606;51.946;10.558;2023-08-24T14:23:15;8.03;;;3.13;;
3189;SDS011;1606;51.946;10.558;2023-08-24T14:25:47;10.33;;;3.57;;
3189;SDS011;1606;51.946;10.558;2023-08-24T14:28:20;10.17;;;3.10;;
3189;SDS011;1606;51.946;10.558;2023-08-24T14:30:48;7.23;;;3.40;;
3189;SDS011;1606;51.946;10.558;2023-08-24T14:33:16;7.43;;;3.30;;
3189;SDS011;1606;51.946;10.558;2023-08-24T14:35:51;8.37;;;3.80;;
3189;SDS011;1606;51.946;10.558;2023-08-24T14:38:19;8.67;;;3.30;;
3189;SDS011;1606;51.946;10.558;2023-08-24T14:40:48;9.77;;;3.57;;
3189;SDS011;1606;51.946;10.558;2023-08-24T14:43:16;7.73;;;3.70;;
3189;SDS011;1606;51.946;10.558;2023-08-24T14:45:44;10.43;;;3.60;;
3189;SDS011;1606;51.946;10.558;2023-08-24T14:48:12;8.30;;;3.23;;
3189;SDS011;1606;51.946;10.558;2023-08-24T14:50:40;8.30;;;3.93;;
3189;SDS011;1606;51.946;10.558;2023-08-24T14:53:08;9.50;;;3.33;;
3189;SDS011;1606;51.946;10.558;2023-08-24T14:55:37;8.50;;;3.93;;
3189;SDS011;1606;51.946;10.558;2023-08-24T14:58:06;7.73;;;3.63;;
3189;SDS011;1606;51.946;10.558;2023-08-24T15:00:34;14.43;;;3.73;;
3189;SDS011;1606;51.946;10.558;2023-08-24T15:03:03;6.77;;;3.23;;